createdAt,value
2019-04-23T00:00:29.421Z,0.00
2019-04-23T00:01:49.156Z,0.00
2019-04-23T00:02:29.134Z,0.00
2019-04-23T00:03:36.875Z,0.00
2019-04-23T00:04:28.669Z,0.00
2019-04-23T00:05:48.151Z,0.00
2019-04-23T00:06:32.272Z,0.00
2019-04-23T00:07:55.933Z,0.00
2019-04-23T00:08:43.370Z,0.00
2019-04-23T00:09:32.993Z,0.00
2019-04-23T00:10:53.332Z,0.00
2019-04-23T00:11:34.172Z,0.00
2019-04-23T00:13:39.005Z,0.00
2019-04-23T00:14:38.496Z,0.00
2019-04-23T00:15:33.484Z,0.00
2019-04-23T00:16:29.882Z,0.00
2019-04-23T00:17:40.277Z,0.00
2019-04-23T00:18:37.729Z,0.00
2019-04-23T00:19:32.943Z,0.00
2019-04-23T00:20:34.776Z,0.00
2019-04-23T00:21:38.860Z,0.00
2019-04-23T00:22:41.494Z,0.00
2019-04-23T00:23:40.871Z,0.00
2019-04-23T00:24:53.031Z,0.00
2019-04-23T00:26:39.790Z,0.00
2019-04-23T00:28:35.421Z,0.00
2019-04-23T00:29:44.710Z,0.00
2019-04-23T00:31:31.406Z,0.00
2019-04-23T00:32:37.952Z,0.00
2019-04-23T00:33:34.580Z,0.00
2019-04-23T00:34:34.377Z,0.00
2019-04-23T00:35:34.057Z,0.00
2019-04-23T00:39:34.562Z,0.00
2019-04-23T00:40:35.409Z,0.00
2019-04-23T00:41:36.699Z,0.00
2019-04-23T00:42:38.542Z,0.00
2019-04-23T00:43:41.017Z,0.00
2019-04-23T00:44:40.078Z,0.00
2019-04-23T00:45:39.833Z,0.00
2019-04-23T00:46:34.933Z,0.00
2019-04-23T00:47:38.420Z,0.00
2019-04-23T00:48:36.495Z,0.00
2019-04-23T00:49:37.111Z,0.00
2019-04-23T00:50:38.463Z,0.00
2019-04-23T00:51:36.851Z,0.00
2019-04-23T00:52:46.241Z,0.00
2019-04-23T00:53:46.723Z,0.00
2019-04-23T00:54:34.254Z,0.00
2019-04-23T00:55:29.906Z,0.00
2019-04-23T00:57:35.461Z,0.00
2019-04-23T00:58:36.598Z,0.00
2019-04-23T00:59:42.771Z,0.00
2019-04-23T01:02:37.450Z,0.00
2019-04-23T01:03:25.633Z,0.00
2019-04-23T01:04:31.693Z,0.00
2019-04-23T01:05:31.197Z,0.00
2019-04-23T01:06:29.173Z,0.00
2019-04-23T01:07:33.388Z,0.00
2019-04-23T01:08:33.239Z,0.00
2019-04-23T01:09:44.130Z,0.00
2019-04-23T01:10:34.925Z,0.00
2019-04-23T01:11:34.203Z,0.00
2019-04-23T01:12:37.797Z,0.00
2019-04-23T01:13:40.103Z,0.00
2019-04-23T01:14:34.494Z,0.00
2019-04-23T01:15:53.722Z,0.00
2019-04-23T01:16:33.455Z,0.00
2019-04-23T01:17:39.539Z,0.00
2019-04-23T01:19:41.803Z,0.00
2019-04-23T01:20:37.091Z,0.00
2019-04-23T01:21:11.964Z,0.00
2019-04-23T01:22:12.581Z,0.00
2019-04-23T01:23:11.992Z,0.00
2019-04-23T01:24:18.105Z,0.00
2019-04-23T01:25:22.201Z,0.00
2019-04-23T01:26:33.060Z,0.00
2019-04-23T01:28:45.073Z,0.00
2019-04-23T01:29:42.521Z,0.00
2019-04-23T01:30:34.115Z,0.00
2019-04-23T01:31:43.301Z,0.00
2019-04-23T01:33:47.023Z,0.00
2019-04-23T01:34:42.353Z,0.00
2019-04-23T01:35:36.454Z,0.00
2019-04-23T01:36:54.633Z,0.00
2019-04-23T01:37:30.497Z,0.00
2019-04-23T01:38:41.744Z,0.00
2019-04-23T01:39:40.143Z,0.00
2019-04-23T01:40:39.385Z,0.00
2019-04-23T01:41:41.494Z,0.00
2019-04-23T01:42:40.596Z,0.00
2019-04-23T01:43:44.061Z,0.00
2019-04-23T01:44:42.501Z,0.00
2019-04-23T01:45:29.598Z,0.00
2019-04-23T01:46:46.207Z,0.00
2019-04-23T01:47:38.830Z,0.00
2019-04-23T01:49:47.472Z,0.00
2019-04-23T01:50:47.099Z,0.00
2019-04-23T01:51:39.934Z,0.00
2019-04-23T01:52:45.572Z,0.00
2019-04-23T01:53:38.960Z,0.00
2019-04-23T01:54:42.335Z,0.00
2019-04-23T01:55:52.712Z,0.00
2019-04-23T01:56:33.493Z,0.00
2019-04-23T01:57:37.944Z,0.00
2019-04-23T01:58:53.639Z,0.00
2019-04-23T01:59:39.259Z,0.00
2019-04-23T02:01:38.721Z,0.00
2019-04-23T02:02:48.091Z,0.00
2019-04-23T02:03:56.166Z,0.00
2019-04-23T02:04:36.517Z,0.00
2019-04-23T02:06:38.921Z,0.00
2019-04-23T02:07:45.929Z,0.00
2019-04-23T02:08:40.478Z,0.00
2019-04-23T02:09:42.281Z,0.00
2019-04-23T02:10:44.444Z,0.00
2019-04-23T02:11:37.370Z,0.00
2019-04-23T02:12:42.051Z,0.00
2019-04-23T02:13:38.733Z,0.00
2019-04-23T02:14:34.804Z,0.00
2019-04-23T02:15:37.882Z,0.00
2019-04-23T02:16:40.799Z,0.00
2019-04-23T02:17:38.439Z,0.00
2019-04-23T02:18:37.419Z,0.00
2019-04-23T02:19:38.484Z,0.00
2019-04-23T02:21:38.195Z,0.00
2019-04-23T02:22:54.223Z,0.00
2019-04-23T02:23:36.922Z,0.00
2019-04-23T02:24:43.012Z,0.00
2019-04-23T02:26:39.862Z,0.00
2019-04-23T02:27:36.406Z,0.00
2019-04-23T02:31:18.591Z,0.00
2019-04-23T02:31:52.943Z,0.00
2019-04-23T02:32:46.236Z,0.00
2019-04-23T02:33:49.960Z,0.00
2019-04-23T02:34:52.254Z,0.00
2019-04-23T02:36:47.469Z,0.00
2019-04-23T02:37:58.284Z,0.00
2019-04-23T02:38:54.521Z,0.00
2019-04-23T02:39:53.633Z,0.00
2019-04-23T02:41:02.272Z,0.00
2019-04-23T02:42:12.948Z,0.00
2019-04-23T02:43:00.915Z,0.00
2019-04-23T02:43:39.224Z,0.00
2019-04-23T02:44:38.626Z,0.00
2019-04-23T02:46:02.506Z,0.00
2019-04-23T02:46:44.001Z,0.00
2019-04-23T02:48:45.956Z,0.00
2019-04-23T02:49:54.941Z,0.00
2019-04-23T02:51:42.446Z,0.00
2019-04-23T02:54:00.134Z,0.00
2019-04-23T02:54:57.100Z,0.00
2019-04-23T02:56:04.879Z,0.00
2019-04-23T02:57:47.663Z,0.00
2019-04-23T02:58:54.505Z,0.00
2019-04-23T02:59:56.037Z,0.00
2019-04-23T03:00:55.675Z,0.00
2019-04-23T03:02:47.824Z,0.00
2019-04-23T03:03:53.301Z,0.00
2019-04-23T03:04:55.521Z,0.00
2019-04-23T03:05:45.521Z,0.00
2019-04-23T03:06:45.955Z,0.00
2019-04-23T03:07:45.102Z,0.00
2019-04-23T03:08:49.270Z,0.00
2019-04-23T03:09:45.838Z,0.00
2019-04-23T03:16:56.326Z,0.00
2019-04-23T03:17:47.374Z,0.00
2019-04-23T03:18:48.801Z,0.00
2019-04-23T03:23:01.134Z,0.00
2019-04-23T03:23:49.976Z,0.00
2019-04-23T03:25:35.651Z,0.00
2019-04-23T03:27:05.289Z,0.00
2019-04-23T03:29:04.261Z,4.00
2019-04-23T03:29:51.231Z,0.00
2019-04-23T03:32:34.146Z,4.00
2019-04-23T03:32:45.711Z,4.00
2019-04-23T03:37:08.687Z,8.00
2019-04-23T03:39:56.590Z,12.00
2019-04-23T03:40:46.487Z,16.00
2019-04-23T03:42:47.583Z,24.00
2019-04-23T03:43:41.160Z,24.00
2019-04-23T03:44:47.765Z,28.00
2019-04-23T03:46:36.548Z,44.00
2019-04-23T03:47:41.324Z,52.00
2019-04-23T03:49:48.601Z,68.00
2019-04-23T03:52:02.533Z,96.00
2019-04-23T03:52:42.310Z,108.00
2019-04-23T03:53:58.534Z,124.00
2019-04-23T03:54:49.227Z,140.00
2019-04-23T03:55:52.063Z,156.00
2019-04-23T03:56:52.588Z,180.00
2019-04-23T03:57:43.395Z,204.00
2019-04-23T03:58:44.857Z,228.00
2019-04-23T03:59:44.803Z,256.00
2019-04-23T04:00:47.374Z,284.00
2019-04-23T04:01:48.720Z,316.00
2019-04-23T04:04:38.267Z,424.00
2019-04-23T04:05:45.859Z,460.00
2019-04-23T04:06:50.219Z,504.00
2019-04-23T04:08:05.171Z,544.00
2019-04-23T04:08:47.395Z,588.00
2019-04-23T04:09:49.918Z,636.00
2019-04-23T04:11:27.397Z,736.00
2019-04-23T04:12:41.478Z,788.00
2019-04-23T04:14:44.807Z,900.00
2019-04-23T04:15:55.518Z,956.00
2019-04-23T04:16:49.650Z,1016.00
2019-04-23T04:17:55.634Z,1076.00
2019-04-23T04:18:44.171Z,1136.00
2019-04-23T04:21:52.578Z,1324.00
2019-04-23T04:23:04.264Z,1388.00
2019-04-23T04:24:40.121Z,1520.00
2019-04-23T04:25:51.629Z,1588.00
2019-04-23T04:26:51.548Z,1660.00
2019-04-23T04:27:56.061Z,1724.00
2019-04-23T04:28:46.513Z,1788.00
2019-04-23T04:30:43.437Z,1932.00
2019-04-23T04:31:48.240Z,2004.00
2019-04-23T04:32:53.931Z,2072.00
2019-04-23T04:35:09.031Z,2200.00
2019-04-23T04:35:37.797Z,2264.00
2019-04-23T04:36:58.455Z,2324.00
2019-04-23T04:38:06.174Z,2408.00
2019-04-23T04:40:05.175Z,2540.00
2019-04-23T04:40:42.184Z,2608.00
2019-04-23T04:41:52.583Z,2664.00
2019-04-23T04:42:49.031Z,2736.00
2019-04-23T04:44:02.468Z,2804.00
2019-04-23T04:45:02.014Z,2852.00
2019-04-23T04:45:51.983Z,2912.00
2019-04-23T04:46:47.654Z,2992.00
2019-04-23T04:49:51.709Z,3196.00
2019-04-23T04:52:47.137Z,3404.00
2019-04-23T04:54:30.828Z,3448.00
2019-04-23T04:55:52.469Z,3464.00
2019-04-23T04:56:43.113Z,3520.00
2019-04-23T04:58:47.496Z,3636.00
2019-04-23T04:59:55.440Z,3700.00
2019-04-23T05:01:50.961Z,3904.00
2019-04-23T05:03:03.712Z,4184.00
2019-04-23T05:03:58.244Z,4400.00
2019-04-23T05:06:56.915Z,4652.00
2019-04-23T05:08:48.049Z,4780.00
2019-04-23T05:11:52.442Z,5048.00
2019-04-23T05:12:36.061Z,5104.00
2019-04-23T05:13:47.652Z,5180.00
2019-04-23T05:14:52.704Z,5276.00
2019-04-23T05:16:43.199Z,5476.00
2019-04-23T05:21:01.867Z,5804.00
2019-04-23T05:21:46.785Z,5884.00
2019-04-23T05:22:51.063Z,5976.00
2019-04-23T05:25:38.102Z,6164.00
2019-04-23T05:27:46.325Z,6224.00
2019-04-23T05:28:38.837Z,6292.00
2019-04-23T05:29:37.705Z,6372.00
2019-04-23T05:31:01.294Z,6484.00
2019-04-23T05:31:33.071Z,6580.00
2019-04-23T05:32:41.875Z,6636.00
2019-04-23T05:33:43.442Z,6672.00
2019-04-23T05:34:55.490Z,6784.00
2019-04-23T05:36:04.792Z,6900.00
2019-04-23T05:36:41.670Z,7000.00
2019-04-23T05:37:56.902Z,7040.00
2019-04-23T05:38:52.677Z,7048.00
2019-04-23T05:42:43.055Z,7184.00
2019-04-23T05:43:40.840Z,7196.00
2019-04-23T05:44:41.404Z,7212.00
2019-04-23T05:46:42.818Z,7304.00
2019-04-23T05:47:33.383Z,7332.00
2019-04-23T05:48:37.379Z,7380.00
2019-04-23T05:49:39.485Z,7400.00
2019-04-23T05:50:53.915Z,7476.00
2019-04-23T05:51:49.162Z,7512.00
2019-04-23T05:53:40.825Z,7620.00
2019-04-23T05:54:46.210Z,7696.00
2019-04-23T05:55:42.698Z,7756.00
2019-04-23T05:56:38.571Z,7820.00
2019-04-23T05:57:38.537Z,7884.00
2019-04-23T05:58:46.996Z,7912.00
2019-04-23T05:59:37.550Z,7964.00
2019-04-23T06:02:41.958Z,8104.00
2019-04-23T06:03:39.981Z,8152.00
2019-04-23T06:04:38.859Z,8204.00
2019-04-23T06:05:40.149Z,8260.00
2019-04-23T06:06:47.155Z,8332.00
2019-04-23T06:08:43.967Z,8648.00
2019-04-23T06:09:39.359Z,8840.00
2019-04-23T06:10:44.305Z,9056.00
2019-04-23T06:12:36.904Z,9384.00
2019-04-23T06:13:44.581Z,9312.00
2019-04-23T06:14:38.929Z,9300.00
2019-04-23T06:15:41.658Z,9156.00
2019-04-23T06:16:47.254Z,9048.00
2019-04-23T06:17:44.485Z,9136.00
2019-04-23T06:18:38.103Z,9292.00
2019-04-23T06:19:36.708Z,9244.00
2019-04-23T06:20:45.405Z,9232.00
2019-04-23T06:21:44.365Z,9296.00
2019-04-23T06:23:48.070Z,9524.00
2019-04-23T06:24:48.831Z,9588.00
2019-04-23T06:25:50.766Z,9624.00
2019-04-23T06:26:47.220Z,9760.00
2019-04-23T06:27:39.740Z,9852.00
2019-04-23T06:28:33.372Z,9820.00
2019-04-23T06:30:52.255Z,9824.00
2019-04-23T06:31:43.554Z,9908.00
2019-04-23T06:32:38.001Z,9936.00
2019-04-23T06:33:41.802Z,9924.00
2019-04-23T06:34:39.731Z,9968.00
2019-04-23T06:35:36.290Z,10000.00
2019-04-23T06:36:38.482Z,10052.00
2019-04-23T06:38:14.381Z,10160.00
2019-04-23T06:40:41.893Z,10384.00
2019-04-23T06:41:37.551Z,10380.00
2019-04-23T06:42:34.598Z,10476.00
2019-04-23T06:43:47.097Z,10520.00
2019-04-23T06:44:37.830Z,10580.00
2019-04-23T06:46:43.497Z,10756.00
2019-04-23T06:47:36.162Z,10908.00
2019-04-23T06:48:40.792Z,11036.00
2019-04-23T06:49:44.122Z,11092.00
2019-04-23T06:50:41.507Z,11164.00
2019-04-23T06:51:46.417Z,11272.00
2019-04-23T06:52:43.811Z,11384.00
2019-04-23T06:53:38.528Z,11460.00
2019-04-23T06:54:42.565Z,11556.00
2019-04-23T06:56:44.743Z,11828.00
2019-04-23T06:57:36.747Z,11952.00
2019-04-23T06:58:37.359Z,12068.00
2019-04-23T06:59:38.495Z,12248.00
2019-04-23T07:00:46.603Z,12396.00
2019-04-23T07:01:50.408Z,12532.00
2019-04-23T07:02:37.645Z,12708.00
2019-04-23T07:04:43.485Z,13264.00
2019-04-23T07:05:42.732Z,13420.00
2019-04-23T07:06:38.353Z,13544.00
2019-04-23T07:09:03.201Z,13804.00
2019-04-23T07:09:37.312Z,14076.00
2019-04-23T07:10:40.272Z,14284.00
2019-04-23T07:13:46.532Z,15192.00
2019-04-23T07:14:44.160Z,15524.00
2019-04-23T07:17:34.894Z,16348.00
2019-04-23T07:18:38.000Z,16636.00
2019-04-23T07:20:40.087Z,17004.00
2019-04-23T07:21:39.343Z,17484.00
2019-04-23T07:22:35.965Z,17808.00
2019-04-23T07:23:44.770Z,17916.00
2019-04-23T07:24:39.809Z,18040.00
2019-04-23T07:25:41.791Z,18720.00
2019-04-23T07:27:30.098Z,19456.00
2019-04-23T07:28:47.998Z,19936.00
2019-04-23T07:29:52.780Z,20128.00
2019-04-23T07:30:41.536Z,20000.00
2019-04-23T07:31:46.098Z,19904.00
2019-04-23T07:32:38.923Z,20256.00
2019-04-23T07:33:44.704Z,20864.00
2019-04-23T07:34:39.776Z,21152.00
2019-04-23T07:35:38.005Z,21248.00
2019-04-23T07:37:40.314Z,21760.00
2019-04-23T07:38:48.171Z,22432.00
2019-04-23T07:40:40.568Z,22848.00
2019-04-23T07:42:50.077Z,21760.00
2019-04-23T07:43:42.265Z,21728.00
2019-04-23T07:44:43.353Z,22336.00
2019-04-23T07:45:45.114Z,22880.00
2019-04-23T07:46:40.710Z,22944.00
2019-04-23T07:47:33.819Z,23040.00
2019-04-23T07:48:27.630Z,22944.00
2019-04-23T07:49:43.303Z,23104.00
2019-04-23T07:51:37.383Z,23520.00
2019-04-23T07:52:41.003Z,23936.00
2019-04-23T07:53:41.204Z,25184.00
2019-04-23T07:56:47.692Z,28384.00
2019-04-23T07:57:40.121Z,28224.00
2019-04-23T07:58:33.219Z,27648.00
2019-04-23T07:59:43.744Z,27552.00
2019-04-23T08:00:47.044Z,29088.00
2019-04-23T08:01:34.433Z,29696.00
2019-04-23T08:02:33.551Z,29440.00
2019-04-23T08:03:39.309Z,27712.00
2019-04-23T08:04:43.104Z,27680.00
2019-04-23T08:05:49.079Z,30240.00
2019-04-23T08:06:40.502Z,32064.00
2019-04-23T08:07:45.694Z,30976.00
2019-04-23T08:08:39.656Z,29088.00
2019-04-23T08:09:43.354Z,27936.00
2019-04-23T08:10:55.435Z,26688.00
2019-04-23T08:11:39.944Z,25632.00
2019-04-23T08:12:43.808Z,25440.00
2019-04-23T08:14:44.769Z,25728.00
2019-04-23T08:15:42.935Z,25664.00
2019-04-23T08:16:38.305Z,26240.00
2019-04-23T08:17:34.676Z,26336.00
2019-04-23T08:18:45.156Z,25184.00
2019-04-23T08:19:51.198Z,23904.00
2019-04-23T08:20:42.545Z,22528.00
2019-04-23T08:21:39.782Z,21568.00
2019-04-23T08:22:39.403Z,20928.00
2019-04-23T08:23:42.789Z,20608.00
2019-04-23T08:24:45.420Z,20384.00
2019-04-23T08:25:45.799Z,20288.00
2019-04-23T08:26:44.721Z,19904.00
2019-04-23T08:27:34.827Z,19552.00
2019-04-23T08:28:52.724Z,19360.00
2019-04-23T08:29:30.377Z,19232.00
2019-04-23T08:30:40.356Z,19232.00
2019-04-23T08:31:43.821Z,19264.00
2019-04-23T08:32:27.994Z,19232.00
2019-04-23T08:33:40.132Z,19552.00
2019-04-23T08:35:43.296Z,19904.00
2019-04-23T08:36:42.364Z,20096.00
2019-04-23T08:38:44.921Z,19968.00
2019-04-23T08:39:38.619Z,20224.00
2019-04-23T08:40:42.836Z,20352.00
2019-04-23T08:41:42.241Z,20448.00
2019-04-23T08:42:46.892Z,20512.00
2019-04-23T08:43:57.438Z,20672.00
2019-04-23T08:46:50.995Z,20928.00
2019-04-23T08:47:59.124Z,20928.00
2019-04-23T08:48:41.398Z,21216.00
2019-04-23T08:49:43.918Z,20992.00
2019-04-23T08:50:43.040Z,20864.00
2019-04-23T08:52:38.313Z,22336.00
2019-04-23T08:55:44.279Z,23616.00
2019-04-23T08:56:41.494Z,23360.00
2019-04-23T08:57:39.283Z,23008.00
2019-04-23T08:58:41.524Z,23776.00
2019-04-23T08:59:43.917Z,24992.00
2019-04-23T09:00:45.556Z,26528.00
2019-04-23T09:01:48.068Z,27936.00
2019-04-23T09:03:36.176Z,28864.00
2019-04-23T09:05:45.107Z,28448.00
2019-04-23T09:06:37.004Z,28768.00
2019-04-23T09:07:38.984Z,29792.00
2019-04-23T09:08:37.478Z,31488.00
2019-04-23T09:09:45.451Z,32480.00
2019-04-23T09:10:46.227Z,33440.00
2019-04-23T09:13:54.718Z,39200.00
2019-04-23T09:14:42.213Z,38336.00
2019-04-23T09:16:46.894Z,37664.00
2019-04-23T09:17:42.537Z,39232.00
2019-04-23T09:18:37.191Z,38112.00
2019-04-23T09:19:53.136Z,34240.00
2019-04-23T09:20:30.540Z,32384.00
2019-04-23T09:21:40.516Z,32608.00
2019-04-23T09:22:38.619Z,33088.00
2019-04-23T09:23:45.136Z,32576.00
2019-04-23T09:24:43.998Z,33760.00
2019-04-23T09:25:40.698Z,35200.00
2019-04-23T09:26:48.756Z,33856.00
2019-04-23T09:27:53.100Z,35712.00
2019-04-23T09:29:45.681Z,34144.00
2019-04-23T09:30:42.805Z,34336.00
2019-04-23T09:32:00.723Z,33888.00
2019-04-23T09:34:51.175Z,38720.00
2019-04-23T09:35:37.443Z,41120.00
2019-04-23T09:36:41.514Z,40192.00
2019-04-23T09:37:49.204Z,40032.00
2019-04-23T09:38:39.628Z,40576.00
2019-04-23T09:39:46.896Z,40640.00
2019-04-23T09:41:51.556Z,40960.00
2019-04-23T09:43:43.343Z,43328.00
2019-04-23T09:44:56.588Z,44288.00
2019-04-23T09:45:42.376Z,44064.00
2019-04-23T09:46:36.495Z,43552.00
2019-04-23T09:47:48.983Z,44576.00
2019-04-23T09:48:48.518Z,45376.00
2019-04-23T09:49:44.238Z,47072.00
2019-04-23T09:50:45.809Z,44672.00
2019-04-23T09:52:52.998Z,43168.00
2019-04-23T09:53:57.801Z,44864.00
2019-04-23T09:55:45.471Z,45248.00
2019-04-23T09:56:44.341Z,44160.00
2019-04-23T09:57:44.698Z,44736.00
2019-04-23T09:58:34.584Z,45568.00
2019-04-23T09:59:43.201Z,46976.00
2019-04-23T10:01:30.206Z,48832.00
2019-04-23T10:02:31.026Z,50496.00
2019-04-23T10:03:26.847Z,52416.00
2019-04-23T10:04:28.168Z,54272.00
2019-04-23T10:05:26.226Z,56512.00
2019-04-23T10:06:20.829Z,62592.00
2019-04-23T10:07:27.127Z,64832.00
2019-04-23T10:08:21.168Z,65664.00
2019-04-23T10:09:14.583Z,66784.00
2019-04-23T10:10:14.329Z,68736.00
2019-04-23T10:11:13.850Z,68448.00
2019-04-23T10:12:13.158Z,71680.00
2019-04-23T10:13:13.712Z,73024.00
2019-04-23T10:14:14.489Z,71712.00
2019-04-23T10:15:21.605Z,77120.00
2019-04-23T10:16:17.024Z,82976.00
2019-04-23T10:17:13.953Z,82208.00
2019-04-23T10:18:14.096Z,84832.00
2019-04-23T10:19:13.015Z,88064.00
2019-04-23T10:20:13.039Z,85888.00
2019-04-23T10:21:13.153Z,87520.00
2019-04-23T10:22:13.342Z,91072.00
2019-04-23T10:23:14.225Z,92768.00
2019-04-23T10:24:13.071Z,97824.00
2019-04-23T10:25:13.083Z,97600.00
2019-04-23T10:26:14.240Z,98560.00
2019-04-23T10:27:14.730Z,96128.00
2019-04-23T10:28:14.775Z,96640.00
2019-04-23T10:29:14.041Z,97984.00
2019-04-23T10:30:14.481Z,98688.00
2019-04-23T10:31:14.510Z,103520.00
2019-04-23T10:32:13.613Z,99040.00
2019-04-23T10:33:13.842Z,100128.00
2019-04-23T10:34:14.718Z,103008.00
2019-04-23T10:35:22.127Z,103648.00
2019-04-23T10:36:17.259Z,103360.00
2019-04-23T10:37:13.603Z,98240.00
2019-04-23T10:38:16.617Z,103776.00
2019-04-23T10:39:20.763Z,101536.00
2019-04-23T10:40:19.424Z,103936.00
2019-04-23T10:41:14.089Z,105408.00
2019-04-23T10:42:14.285Z,109088.00
2019-04-23T10:43:13.315Z,103008.00
2019-04-23T10:44:13.303Z,104608.00
2019-04-23T10:45:27.286Z,99968.00
2019-04-23T10:46:32.594Z,101888.00
2019-04-23T10:47:40.440Z,99200.00
2019-04-23T10:49:04.546Z,99488.00
2019-04-23T10:51:49.428Z,103616.00
2019-04-23T10:52:37.649Z,103680.00
2019-04-23T10:54:03.466Z,102976.00
2019-04-23T10:54:40.905Z,99008.00
2019-04-23T10:55:52.601Z,97760.00
2019-04-23T10:57:36.372Z,59360.00
2019-04-23T10:58:40.609Z,107776.00
2019-04-23T11:00:46.099Z,42400.00
2019-04-23T11:01:44.994Z,51072.00
2019-04-23T11:03:58.857Z,56832.00
2019-04-23T11:05:00.455Z,55520.00
2019-04-23T11:05:50.337Z,63328.00
2019-04-23T11:06:47.203Z,55808.00
2019-04-23T11:07:47.523Z,55488.00
2019-04-23T11:08:55.446Z,57440.00
2019-04-23T11:09:50.116Z,52352.00
2019-04-23T11:10:44.573Z,101440.00
2019-04-23T11:11:48.344Z,120320.00
2019-04-23T11:15:09.239Z,114368.00
2019-04-23T11:18:51.854Z,48160.00
2019-04-23T11:19:51.587Z,60480.00
2019-04-23T11:21:43.062Z,66112.00
2019-04-23T11:22:57.410Z,56960.00
2019-04-23T11:23:43.044Z,60192.00
2019-04-23T11:24:50.338Z,48768.00
2019-04-23T11:25:42.836Z,116928.00
2019-04-23T11:26:42.478Z,114624.00
2019-04-23T11:27:43.985Z,113216.00
2019-04-23T11:28:38.412Z,113088.00
2019-04-23T11:29:44.379Z,110272.00
2019-04-23T11:31:41.335Z,114496.00
2019-04-23T11:33:46.081Z,105472.00
2019-04-23T11:38:56.099Z,113120.00
2019-04-23T11:39:45.078Z,111584.00
2019-04-23T11:40:37.199Z,105632.00
2019-04-23T11:42:47.783Z,111392.00
2019-04-23T11:43:37.787Z,103008.00
2019-04-23T11:44:41.716Z,112992.00
2019-04-23T11:45:49.334Z,114976.00
2019-04-23T11:48:14.294Z,118688.00
2019-04-23T11:55:44.855Z,68864.00
2019-04-23T11:57:52.480Z,92160.00
2019-04-23T11:58:42.868Z,52480.00
2019-04-23T12:00:57.202Z,88352.00
2019-04-23T12:02:43.365Z,133216.00
2019-04-23T12:03:56.809Z,67392.00
2019-04-23T12:04:48.037Z,135424.00
2019-04-23T12:05:52.362Z,137376.00
2019-04-23T12:06:39.012Z,133696.00
2019-04-23T12:07:57.685Z,126272.00
2019-04-23T12:08:43.288Z,124704.00
2019-04-23T12:09:46.489Z,135296.00
2019-04-23T12:10:55.302Z,129536.00
2019-04-23T12:11:53.452Z,126272.00
2019-04-23T12:12:42.944Z,125920.00
2019-04-23T12:13:51.486Z,124608.00
2019-04-23T12:14:53.694Z,121056.00
2019-04-23T12:16:54.041Z,118240.00
2019-04-23T12:17:42.286Z,113184.00
2019-04-23T12:19:01.455Z,111552.00
2019-04-23T12:20:41.198Z,114016.00
2019-04-23T12:21:43.728Z,112128.00
2019-04-23T12:22:51.292Z,115584.00
2019-04-23T12:23:49.871Z,73376.00
2019-04-23T12:25:47.449Z,112832.00
2019-04-23T12:26:55.865Z,109408.00
2019-04-23T12:27:33.174Z,121760.00
2019-04-23T12:28:44.135Z,116448.00
2019-04-23T12:30:44.942Z,88800.00
2019-04-23T12:31:51.031Z,87008.00
2019-04-23T12:32:47.961Z,65664.00
2019-04-23T12:33:55.008Z,102720.00
2019-04-23T12:34:55.638Z,90944.00
2019-04-23T12:35:52.001Z,71680.00
2019-04-23T12:36:42.620Z,68672.00
2019-04-23T12:37:39.326Z,66016.00
2019-04-23T12:38:40.988Z,84032.00
2019-04-23T12:39:41.964Z,82336.00
2019-04-23T12:40:40.442Z,121088.00
2019-04-23T12:41:45.254Z,111168.00
2019-04-23T12:43:40.478Z,74496.00
2019-04-23T12:44:50.436Z,59072.00
2019-04-23T12:45:38.766Z,57984.00
2019-04-23T12:46:45.955Z,75392.00
2019-04-23T12:47:49.948Z,72864.00
2019-04-23T12:48:50.128Z,91648.00
2019-04-23T12:50:05.032Z,72544.00
2019-04-23T12:51:52.190Z,73664.00
2019-04-23T12:52:46.899Z,97664.00
2019-04-23T12:55:05.285Z,109568.00
2019-04-23T12:55:47.368Z,116864.00
2019-04-23T12:57:46.746Z,112960.00
2019-04-23T12:58:32.250Z,114944.00
2019-04-23T12:59:43.837Z,116352.00
2019-04-23T13:01:05.696Z,102112.00
2019-04-23T13:01:49.686Z,117248.00
2019-04-23T13:02:46.483Z,110304.00
2019-04-23T13:03:40.589Z,101824.00
2019-04-23T13:04:49.052Z,50272.00
2019-04-23T13:05:32.736Z,40704.00
2019-04-23T13:06:44.077Z,39328.00
2019-04-23T13:07:43.924Z,37152.00
2019-04-23T13:08:46.122Z,38336.00
2019-04-23T13:09:45.781Z,45632.00
2019-04-23T13:10:40.016Z,52480.00
2019-04-23T13:11:40.858Z,47232.00
2019-04-23T13:13:48.503Z,42144.00
2019-04-23T13:14:49.085Z,39840.00
2019-04-23T13:15:40.669Z,40608.00
2019-04-23T13:16:53.906Z,43936.00
2019-04-23T13:18:17.410Z,46272.00
2019-04-23T13:18:46.709Z,49664.00
2019-04-23T13:19:51.858Z,95808.00
2019-04-23T13:21:58.650Z,104864.00
2019-04-23T13:23:01.865Z,101056.00
2019-04-23T13:23:44.220Z,101088.00
2019-04-23T13:24:41.920Z,105952.00
2019-04-23T13:25:49.653Z,98880.00
2019-04-23T13:26:36.440Z,45248.00
2019-04-23T13:27:46.570Z,37856.00
2019-04-23T13:28:45.645Z,37984.00
2019-04-23T13:31:41.384Z,45536.00
2019-04-23T13:32:46.377Z,49632.00
2019-04-23T13:33:58.711Z,50304.00
2019-04-23T13:34:48.446Z,73280.00
2019-04-23T13:36:45.059Z,97184.00
2019-04-23T13:38:41.843Z,88544.00
2019-04-23T13:39:48.764Z,92960.00
2019-04-23T13:41:01.218Z,93824.00
2019-04-23T13:41:40.552Z,92736.00
2019-04-23T13:42:49.890Z,89632.00
2019-04-23T13:44:51.973Z,73088.00
2019-04-23T13:45:59.995Z,83136.00
2019-04-23T13:46:41.022Z,91168.00
2019-04-23T13:48:40.137Z,83360.00
2019-04-23T13:49:51.170Z,83104.00
2019-04-23T13:50:59.989Z,85984.00
2019-04-23T13:51:39.476Z,76096.00
2019-04-23T13:53:45.022Z,81728.00
2019-04-23T13:55:42.912Z,47936.00
2019-04-23T13:57:12.748Z,38496.00
2019-04-23T13:58:05.097Z,53728.00
2019-04-23T13:58:50.341Z,57344.00
2019-04-23T13:59:47.095Z,72928.00
2019-04-23T14:01:42.989Z,76768.00
2019-04-23T14:04:01.012Z,50048.00
2019-04-23T14:04:50.802Z,56800.00
2019-04-23T14:05:41.513Z,52736.00
2019-04-23T14:06:47.086Z,71040.00
2019-04-23T14:07:48.487Z,82496.00
2019-04-23T14:10:47.614Z,79840.00
2019-04-23T14:11:58.580Z,75744.00
2019-04-23T14:13:03.705Z,36416.00
2019-04-23T14:13:49.718Z,43040.00
2019-04-23T14:14:47.829Z,29504.00
2019-04-23T14:18:08.855Z,27936.00
2019-04-23T14:19:45.670Z,25056.00
2019-04-23T14:20:40.771Z,24032.00
2019-04-23T14:21:39.213Z,22720.00
2019-04-23T14:24:59.266Z,25664.00
2019-04-23T14:25:59.980Z,42048.00
2019-04-23T14:26:41.131Z,32832.00
2019-04-23T14:27:51.367Z,30176.00
2019-04-23T14:28:59.596Z,31104.00
2019-04-23T14:29:50.333Z,30272.00
2019-04-23T14:30:59.231Z,33984.00
2019-04-23T14:31:43.215Z,64480.00
2019-04-23T14:32:49.897Z,36896.00
2019-04-23T14:34:54.142Z,30688.00
2019-04-23T14:35:46.177Z,30176.00
2019-04-23T14:36:42.858Z,45472.00
2019-04-23T14:38:07.415Z,38656.00
2019-04-23T14:38:43.807Z,55488.00
2019-04-23T14:39:47.594Z,33600.00
2019-04-23T14:41:43.734Z,35200.00
2019-04-23T14:43:58.412Z,70560.00
2019-04-23T14:44:47.168Z,67008.00
2019-04-23T14:46:04.825Z,70784.00
2019-04-23T14:46:54.857Z,70272.00
2019-04-23T14:47:46.376Z,70240.00
2019-04-23T14:48:48.991Z,69280.00
2019-04-23T14:49:59.366Z,67424.00
2019-04-23T14:50:39.997Z,64384.00
2019-04-23T14:51:51.634Z,62208.00
2019-04-23T14:52:50.237Z,62560.00
2019-04-23T14:53:43.853Z,63136.00
2019-04-23T14:55:31.490Z,62368.00
2019-04-23T14:55:56.920Z,59872.00
2019-04-23T14:56:46.264Z,58720.00
2019-04-23T14:57:55.822Z,59456.00
2019-04-23T14:58:50.796Z,58304.00
2019-04-23T14:59:46.779Z,57792.00
2019-04-23T15:01:05.200Z,57760.00
2019-04-23T15:01:40.300Z,56736.00
2019-04-23T15:06:00.186Z,55584.00
2019-04-23T15:06:50.912Z,55552.00
2019-04-23T15:07:45.730Z,54656.00
2019-04-23T15:08:50.195Z,52832.00
2019-04-23T15:12:48.691Z,53536.00
2019-04-23T15:13:44.535Z,51296.00
2019-04-23T15:14:56.321Z,47264.00
2019-04-23T15:15:48.716Z,39008.00
2019-04-23T15:16:45.556Z,37024.00
2019-04-23T15:19:02.693Z,24480.00
2019-04-23T15:21:01.256Z,20672.00